Time;durP1;ratioP1;P1;durP2;ratioP2;P2;SDS_P1;SDS_P2;PMS_P1;PMS_P2;Temp;Humidity;BMP_temperature;BMP_pressure;BME280_temperature;BME280_humidity;BME280_pressure;Samples;Min_cycle;Max_cycle;Signal;HPM_P1;HPM_P2
2023/09/26 00:01:27;;;;;;;4.97;3.30;;;11.60;93.90;;;;;;4972105;28;20045;-77
2023/09/26 00:03:53;;;;;;;6.65;3.53;;;11.60;95.20;;;;;;4972364;28;20090;-78
2023/09/26 00:06:23;;;;;;;5.65;3.75;;;11.60;95.20;;;;;;4973831;28;20118;-78
2023/09/26 00:08:49;;;;;;;8.43;3.20;;;11.70;95.50;;;;;;4961757;28;20109;-78
2023/09/26 00:11:15;;;;;;;5.40;3.45;;;11.70;95.30;;;;;;4971289;28;20371;-78
2023/09/26 00:13:41;;;;;;;5.18;3.20;;;11.60;95.60;;;;;;4974572;28;20089;-78
2023/09/26 00:16:07;;;;;;;4.93;3.25;;;11.60;95.70;;;;;;4953346;28;20471;-78
2023/09/26 00:18:33;;;;;;;4.47;2.97;;;11.60;95.70;;;;;;4969203;28;20038;-80
2023/09/26 00:20:58;;;;;;;4.88;3.78;;;11.50;94.70;;;;;;4973169;28;20031;-79
2023/09/26 00:23:24;;;;;;;6.65;3.55;;;11.50;95.00;;;;;;4972551;28;20451;-78
2023/09/26 00:25:50;;;;;;;7.50;3.97;;;11.50;95.10;;;;;;4970541;28;20471;-78
2023/09/26 00:28:15;;;;;;;6.15;4.47;;;11.50;95.00;;;;;;4969026;28;20042;-77
2023/09/26 00:30:42;;;;;;;4.32;3.45;;;11.60;95.10;;;;;;4973251;28;20026;-77
2023/09/26 00:33:07;;;;;;;5.75;3.47;;;11.50;95.70;;;;;;4970469;28;20027;-77
2023/09/26 00:35:34;;;;;;;7.88;3.97;;;11.50;95.10;;;;;;4954356;28;20050;-78
2023/09/26 00:38:00;;;;;;;4.35;3.33;;;11.40;96.50;;;;;;4969111;28;20037;-78
2023/09/26 00:40:26;;;;;;;3.80;3.40;;;11.40;98.40;;;;;;4955080;28;20038;-78
2023/09/26 00:42:51;;;;;;;4.93;3.70;;;11.40;98.40;;;;;;4973347;28;20450;-78
2023/09/26 00:45:17;;;;;;;7.35;3.60;;;11.40;97.20;;;;;;4957178;28;20372;-79
2023/09/26 00:47:43;;;;;;;6.50;3.80;;;11.40;98.00;;;;;;4968786;28;20035;-80
2023/09/26 00:50:11;;;;;;;4.40;3.75;;;11.40;97.00;;;;;;4972941;28;20550;-77
2023/09/26 00:52:36;;;;;;;5.60;3.63;;;11.30;97.70;;;;;;4975401;28;20069;-77
2023/09/26 00:55:04;;;;;;;4.47;3.22;;;11.30;99.90;;;;;;4971905;28;20715;-77
2023/09/26 00:57:31;;;;;;;7.50;3.35;;;11.20;99.90;;;;;;4967790;28;20043;-79
2023/09/26 00:59:57;;;;;;;4.40;3.55;;;11.20;99.90;;;;;;4969821;28;20027;-77
2023/09/26 01:02:23;;;;;;;7.00;3.35;;;11.20;99.90;;;;;;4971176;28;20040;-77
2023/09/26 01:04:49;;;;;;;5.53;3.47;;;11.10;99.90;;;;;;4970575;28;20049;-80
2023/09/26 01:07:14;;;;;;;5.03;3.38;;;11.10;99.90;;;;;;4951095;28;20031;-79
2023/09/26 01:09:40;;;;;;;5.82;3.40;;;11.20;99.90;;;;;;4974001;28;20042;-79
2023/09/26 01:12:05;;;;;;;4.50;3.47;;;11.10;99.90;;;;;;4971173;28;20049;-78
2023/09/26 01:14:31;;;;;;;5.03;3.50;;;11.10;99.90;;;;;;4970040;28;20030;-79
2023/09/26 01:16:57;;;;;;;5.60;3.40;;;11.00;99.90;;;;;;4955131;28;20055;-78
2023/09/26 01:19:22;;;;;;;4.05;3.58;;;11.00;99.90;;;;;;4953907;28;20034;-78
2023/09/26 01:21:48;;;;;;;5.85;3.95;;;11.00;99.90;;;;;;4966889;28;20047;-77
2023/09/26 01:24:17;;;;;;;6.72;3.30;;;11.00;99.90;;;;;;4983806;28;20058;-78
2023/09/26 01:26:42;;;;;;;5.15;3.60;;;10.90;99.90;;;;;;4973205;28;20089;-79
2023/09/26 01:29:09;;;;;;;5.03;3.28;;;10.80;99.90;;;;;;4969889;28;20034;-78
2023/09/26 01:31:36;;;;;;;8.15;3.20;;;10.90;99.90;;;;;;4952575;28;20058;-78
2023/09/26 01:34:02;;;;;;;6.93;3.80;;;10.80;99.90;;;;;;4972135;28;20068;-78
2023/09/26 01:36:28;;;;;;;5.60;3.53;;;10.90;99.90;;;;;;4954597;28;20769;-78
2023/09/26 01:38:54;;;;;;;4.85;3.50;;;10.90;99.90;;;;;;4971101;28;20122;-78
2023/09/26 01:41:21;;;;;;;5.13;3.88;;;10.90;99.90;;;;;;4968414;28;20519;-78
2023/09/26 01:43:47;;;;;;;6.35;4.10;;;10.90;99.90;;;;;;4968618;28;20054;-78
2023/09/26 01:46:12;;;;;;;4.28;3.75;;;10.80;99.90;;;;;;4989859;28;20395;-78
2023/09/26 01:48:38;;;;;;;5.03;3.35;;;10.80;99.90;;;;;;4975546;28;20491;-79
2023/09/26 01:51:06;;;;;;;6.80;3.63;;;10.80;99.90;;;;;;4970910;28;20395;-79
2023/09/26 01:53:32;;;;;;;6.53;3.53;;;10.80;99.90;;;;;;4966522;28;20031;-78
2023/09/26 01:56:01;;;;;;;4.47;3.38;;;10.70;99.90;;;;;;4952358;28;20027;-78
2023/09/26 01:58:26;;;;;;;4.10;3.30;;;10.60;99.90;;;;;;4964618;28;20034;-79
2023/09/26 02:00:52;;;;;;;6.13;3.75;;;10.60;99.90;;;;;;4981500;28;20039;-79
2023/09/26 02:03:17;;;;;;;7.00;3.88;;;10.60;99.90;;;;;;4968026;28;20030;-78
2023/09/26 02:05:43;;;;;;;7.68;3.55;;;10.60;99.90;;;;;;4967415;28;20173;-78
2023/09/26 02:08:08;;;;;;;5.20;3.63;;;10.60;99.90;;;;;;4973793;28;20038;-79
2023/09/26 02:10:34;;;;;;;5.50;4.03;;;10.60;99.90;;;;;;4952667;28;20146;-79
2023/09/26 02:13:00;;;;;;;5.53;3.53;;;10.50;99.90;;;;;;4967334;28;20427;-78
2023/09/26 02:15:25;;;;;;;5.18;3.65;;;10.60;99.90;;;;;;4980290;28;20122;-79
2023/09/26 02:17:51;;;;;;;4.25;3.78;;;10.60;99.90;;;;;;4971140;28;20062;-78
2023/09/26 02:20:18;;;;;;;4.25;3.40;;;10.50;99.90;;;;;;4966370;28;20057;-78
2023/09/26 02:22:50;;;;;;;5.10;3.90;;;10.50;99.90;;;;;;4974980;28;20035;-78
2023/09/26 02:25:18;;;;;;;7.20;3.80;;;10.50;99.90;;;;;;4967804;28;20066;-79
2023/09/26 02:27:44;;;;;;;3.42;3.05;;;10.40;99.90;;;;;;4971738;28;20037;-79
2023/09/26 02:30:12;;;;;;;4.82;3.80;;;10.40;99.90;;;;;;4954235;28;20402;-79
2023/09/26 02:32:37;;;;;;;6.97;4.20;;;10.40;99.90;;;;;;4971714;28;20514;-78
2023/09/26 02:35:05;;;;;;;5.68;3.85;;;10.50;99.90;;;;;;4948437;28;20023;-78
2023/09/26 02:37:30;;;;;;;4.57;4.10;;;10.40;99.90;;;;;;4978482;28;20035;-78
2023/09/26 02:39:56;;;;;;;7.40;4.30;;;10.40;99.90;;;;;;4969700;28;20576;-79
2023/09/26 02:42:21;;;;;;;5.10;3.83;;;10.40;99.90;;;;;;4970621;28;20070;-79
2023/09/26 02:44:47;;;;;;;5.13;4.03;;;10.30;99.90;;;;;;4975323;28;20035;-78
2023/09/26 02:47:13;;;;;;;5.25;4.00;;;10.40;99.90;;;;;;4972636;28;20043;-78
2023/09/26 02:49:38;;;;;;;4.72;4.30;;;10.40;99.90;;;;;;4951898;28;20034;-78
2023/09/26 02:52:04;;;;;;;4.18;3.65;;;10.30;99.90;;;;;;4968943;28;20038;-78
2023/09/26 02:54:29;;;;;;;6.70;3.75;;;10.30;99.90;;;;;;4968066;28;20043;-78
2023/09/26 02:56:57;;;;;;;5.32;4.30;;;10.30;99.90;;;;;;4969530;28;20031;-79
2023/09/26 02:59:22;;;;;;;5.07;4.28;;;10.20;99.90;;;;;;4972635;28;20035;-78
2023/09/26 03:01:48;;;;;;;4.18;3.75;;;10.20;99.90;;;;;;4969798;28;20056;-78
2023/09/26 03:04:13;;;;;;;4.78;4.25;;;10.20;99.90;;;;;;4985080;28;20034;-78
2023/09/26 03:06:39;;;;;;;5.22;3.70;;;10.10;99.90;;;;;;4968046;28;20034;-78
2023/09/26 03:09:04;;;;;;;6.45;3.88;;;10.10;99.90;;;;;;4985087;28;20045;-79
2023/09/26 03:11:30;;;;;;;7.78;4.32;;;10.10;99.90;;;;;;4967314;28;20041;-78
2023/09/26 03:13:55;;;;;;;4.70;3.50;;;10.00;99.90;;;;;;4969744;28;20052;-79
2023/09/26 03:16:21;;;;;;;5.20;4.20;;;10.00;99.90;;;;;;4977278;28;20113;-78
2023/09/26 03:18:51;;;;;;;6.32;4.60;;;10.00;99.90;;;;;;4976579;28;20034;-80
2023/09/26 03:21:17;;;;;;;6.40;4.85;;;10.00;99.90;;;;;;4977280;28;20410;-79
2023/09/26 03:23:43;;;;;;;5.25;4.22;;;10.00;99.90;;;;;;4975745;28;20018;-79
2023/09/26 03:26:12;;;;;;;6.00;4.30;;;10.00;99.90;;;;;;4978612;28;20022;-78
2023/09/26 03:28:38;;;;;;;9.32;4.32;;;10.00;99.90;;;;;;4970437;28;20030;-78
2023/09/26 03:31:04;;;;;;;8.02;3.97;;;10.00;99.90;;;;;;4971836;28;20050;-79
2023/09/26 03:33:30;;;;;;;7.80;4.45;;;10.00;99.90;;;;;;4971220;28;20047;-79
2023/09/26 03:35:56;;;;;;;6.82;4.88;;;10.00;99.90;;;;;;4974749;28;20035;-79
2023/09/26 03:38:23;;;;;;;6.20;4.75;;;9.90;99.90;;;;;;4974897;28;20033;-79
2023/09/26 03:40:55;;;;;;;5.38;4.05;;;9.90;99.90;;;;;;4962561;28;20511;-79
2023/09/26 03:43:20;;;;;;;6.05;4.68;;;9.90;99.90;;;;;;4959549;28;20030;-79
2023/09/26 03:45:46;;;;;;;6.55;4.75;;;9.90;99.90;;;;;;4970559;28;20502;-78
2023/09/26 03:48:11;;;;;;;6.50;4.85;;;9.90;99.90;;;;;;4974865;28;20086;-78
2023/09/26 03:50:37;;;;;;;10.10;5.70;;;9.90;99.90;;;;;;4974752;28;20552;-79
2023/09/26 03:53:03;;;;;;;8.68;4.32;;;9.90;99.90;;;;;;4977245;28;20139;-79
2023/09/26 03:55:28;;;;;;;7.65;5.32;;;9.90;99.90;;;;;;4962136;28;20050;-79
2023/09/26 03:57:54;;;;;;;12.98;5.70;;;10.00;99.90;;;;;;4974242;28;20490;-79
2023/09/26 04:00:25;;;;;;;6.72;4.70;;;9.90;99.90;;;;;;4975539;28;20061;-78
2023/09/26 04:02:51;;;;;;;6.32;4.90;;;9.80;99.90;;;;;;4957950;28;20046;-79
2023/09/26 04:05:16;;;;;;;8.00;4.78;;;9.70;99.90;;;;;;4956120;28;20552;-79
2023/09/26 04:07:42;;;;;;;6.55;4.25;;;9.80;99.90;;;;;;4973464;28;20085;-79
2023/09/26 04:10:08;;;;;;;8.55;4.95;;;9.80;99.90;;;;;;4971757;28;20042;-79
2023/09/26 04:12:34;;;;;;;5.35;4.35;;;9.80;99.90;;;;;;4969205;28;20582;-79
2023/09/26 04:14:59;;;;;;;7.38;5.10;;;9.70;99.90;;;;;;4973399;28;20487;-79
2023/09/26 04:17:27;;;;;;;6.20;4.70;;;9.80;99.90;;;;;;4938203;28;20035;-79
2023/09/26 04:19:52;;;;;;;7.90;5.45;;;9.80;99.90;;;;;;4954536;28;20571;-78
2023/09/26 04:22:18;;;;;;;7.25;4.35;;;9.70;99.90;;;;;;4955729;28;20121;-79
2023/09/26 04:24:43;;;;;;;6.78;4.95;;;9.70;99.90;;;;;;4973511;28;20118;-79
2023/09/26 04:27:09;;;;;;;12.55;5.18;;;9.70;99.90;;;;;;4971341;28;20035;-79
2023/09/26 04:29:35;;;;;;;6.75;5.47;;;9.80;99.90;;;;;;4954250;28;20035;-79
2023/09/26 04:32:00;;;;;;;8.07;5.72;;;9.70;99.90;;;;;;4970438;28;20464;-78
2023/09/26 04:34:27;;;;;;;7.22;5.10;;;9.60;99.90;;;;;;4972761;28;20041;-78
2023/09/26 04:36:53;;;;;;;6.80;5.75;;;9.60;99.90;;;;;;4974913;28;20561;-79
2023/09/26 04:39:19;;;;;;;9.40;6.13;;;9.60;99.90;;;;;;4972339;28;20034;-79
2023/09/26 04:41:45;;;;;;;7.78;5.90;;;9.60;99.90;;;;;;4973238;28;20038;-79
2023/09/26 04:44:11;;;;;;;7.70;6.15;;;9.60;99.90;;;;;;4970570;28;20495;-79
2023/09/26 04:46:36;;;;;;;9.05;6.10;;;9.60;99.90;;;;;;4975321;28;20039;-80
2023/09/26 04:49:02;;;;;;;7.13;6.28;;;9.60;99.90;;;;;;4971506;28;20035;-79
2023/09/26 04:51:27;;;;;;;9.30;6.93;;;9.60;99.90;;;;;;4974082;28;20030;-79
2023/09/26 04:53:53;;;;;;;7.20;6.50;;;9.60;99.90;;;;;;4958929;28;20027;-77
2023/09/26 04:56:19;;;;;;;11.25;6.47;;;9.60;99.90;;;;;;4954434;28;20035;-78
2023/09/26 04:58:44;;;;;;;7.75;6.05;;;9.60;99.90;;;;;;4971909;28;20034;-78
2023/09/26 05:01:14;;;;;;;8.77;5.75;;;9.60;99.90;;;;;;4969281;28;20478;-77
2023/09/26 05:03:40;;;;;;;11.57;6.65;;;9.50;99.90;;;;;;4973521;28;20058;-78
2023/09/26 05:06:07;;;;;;;8.90;6.40;;;9.50;99.90;;;;;;4972069;28;20033;-80
2023/09/26 05:08:32;;;;;;;8.90;5.90;;;9.50;99.90;;;;;;4971834;28;20058;-80
2023/09/26 05:10:58;;;;;;;7.07;6.20;;;9.60;99.90;;;;;;4970871;28;20061;-78
2023/09/26 05:13:24;;;;;;;12.73;7.07;;;9.60;99.90;;;;;;4955065;28;20038;-80
2023/09/26 05:15:49;;;;;;;8.13;6.38;;;9.60;99.90;;;;;;4971197;28;20403;-78
2023/09/26 05:18:15;;;;;;;8.48;6.30;;;9.60;99.90;;;;;;4969721;28;20038;-80
2023/09/26 05:20:41;;;;;;;9.60;6.20;;;9.60;99.90;;;;;;4972605;28;20450;-80
2023/09/26 05:23:07;;;;;;;6.97;6.00;;;9.70;99.90;;;;;;4971517;28;20039;-80
2023/09/26 05:25:35;;;;;;;7.45;6.10;;;9.60;99.90;;;;;;4971780;28;20030;-80
2023/09/26 05:28:01;;;;;;;6.35;5.68;;;9.60;99.90;;;;;;4975111;28;20053;-79
2023/09/26 05:30:26;;;;;;;8.07;5.63;;;9.50;99.90;;;;;;4974173;28;20114;-80
2023/09/26 05:32:52;;;;;;;8.77;6.18;;;9.40;99.90;;;;;;4956288;28;20616;-80
2023/09/26 05:35:18;;;;;;;8.07;6.25;;;9.40;99.90;;;;;;4969759;28;20050;-80
2023/09/26 05:37:44;;;;;;;8.55;6.68;;;9.40;99.90;;;;;;4972867;28;20549;-80
2023/09/26 05:40:09;;;;;;;13.25;6.93;;;9.40;99.90;;;;;;4969071;28;20418;-80
2023/09/26 05:42:36;;;;;;;9.57;7.03;;;9.40;99.90;;;;;;4949780;28;20065;-80
2023/09/26 05:45:06;;;;;;;7.47;6.35;;;9.40;99.90;;;;;;4954584;28;20475;-80
2023/09/26 05:47:32;;;;;;;8.52;6.28;;;9.50;99.90;;;;;;4972220;28;20043;-79
2023/09/26 05:49:57;;;;;;;12.10;6.63;;;9.50;99.90;;;;;;4968537;28;20080;-79
2023/09/26 05:52:23;;;;;;;7.57;6.88;;;9.60;99.90;;;;;;4971867;28;21669;-79
2023/09/26 05:54:49;;;;;;;12.63;7.20;;;9.60;99.90;;;;;;4971551;28;20062;-80
2023/09/26 05:57:14;;;;;;;9.90;7.07;;;9.70;99.90;;;;;;4969085;28;20027;-80
2023/09/26 05:59:40;;;;;;;11.20;6.70;;;9.60;99.90;;;;;;4999378;28;20041;-80
2023/09/26 06:02:10;;;;;;;13.45;8.73;;;9.60;99.90;;;;;;4971024;28;20038;-80
2023/09/26 06:04:39;;;;;;;10.65;7.60;;;9.60;99.90;;;;;;4967925;28;20031;-79
2023/09/26 06:07:04;;;;;;;11.85;9.38;;;9.80;99.90;;;;;;4956427;28;20446;-80
2023/09/26 06:09:30;;;;;;;13.73;7.97;;;9.80;99.90;;;;;;4956735;28;20133;-79
2023/09/26 06:11:56;;;;;;;10.48;8.27;;;9.80;99.90;;;;;;4972394;28;20030;-79
2023/09/26 06:14:21;;;;;;;10.48;8.48;;;9.90;99.90;;;;;;4968496;28;20745;-80
2023/09/26 06:16:47;;;;;;;9.50;8.13;;;9.90;99.90;;;;;;4974932;28;20399;-79
2023/09/26 06:19:13;;;;;;;11.98;8.38;;;10.00;99.90;;;;;;5000249;28;20039;-79
2023/09/26 06:21:38;;;;;;;19.58;10.18;;;10.10;99.90;;;;;;4966242;28;20035;-80
2023/09/26 06:24:06;;;;;;;12.07;8.80;;;10.10;99.90;;;;;;4965865;28;20039;-80
2023/09/26 06:26:34;;;;;;;12.68;8.63;;;10.20;99.90;;;;;;4987275;28;20041;-80
2023/09/26 06:29:00;;;;;;;15.57;8.82;;;10.30;99.90;;;;;;4964939;28;20031;-80
2023/09/26 06:31:26;;;;;;;12.38;9.02;;;10.40;99.90;;;;;;4968063;28;20039;-80
2023/09/26 06:33:52;;;;;;;9.88;7.72;;;10.50;99.90;;;;;;4966579;28;20041;-80
2023/09/26 06:36:19;;;;;;;12.75;9.00;;;10.60;99.90;;;;;;4952621;28;20035;-81
2023/09/26 06:38:44;;;;;;;11.40;7.47;;;10.60;99.90;;;;;;4974825;28;20030;-80
2023/09/26 06:41:10;;;;;;;10.82;7.30;;;10.70;99.90;;;;;;4967662;28;20035;-80
2023/09/26 06:43:36;;;;;;;9.02;7.65;;;10.80;99.90;;;;;;4957267;28;20022;-79
2023/09/26 06:46:08;;;;;;;12.98;7.47;;;10.80;99.90;;;;;;4936829;28;20039;-80
2023/09/26 06:48:37;;;;;;;8.75;7.00;;;10.90;99.90;;;;;;4952368;28;20395;-79
2023/09/26 06:51:02;;;;;;;9.55;7.68;;;11.00;99.90;;;;;;4974697;28;20031;-79
2023/09/26 06:53:28;;;;;;;9.57;6.72;;;11.10;99.90;;;;;;4971691;28;20088;-79
2023/09/26 06:56:04;;;;;;;10.32;7.72;;;11.30;99.90;;;;;;4972958;28;20037;-79
2023/09/26 06:58:30;;;;;;;8.95;7.10;;;11.30;99.90;;;;;;4975619;28;20033;-79
2023/09/26 07:00:55;;;;;;;8.10;7.25;;;11.40;99.90;;;;;;4974846;28;20035;-79
2023/09/26 07:03:21;;;;;;;9.52;7.15;;;11.70;99.90;;;;;;4972727;28;20045;-79
2023/09/26 07:05:47;;;;;;;9.95;6.35;;;11.80;99.90;;;;;;4975588;28;20085;-79
2023/09/26 07:08:14;;;;;;;13.30;7.32;;;11.90;99.90;;;;;;4977899;28;20042;-80
2023/09/26 07:10:39;;;;;;;8.82;6.80;;;12.00;99.90;;;;;;4975957;28;20034;-79
2023/09/26 07:13:05;;;;;;;8.45;6.93;;;12.00;99.90;;;;;;4952247;28;20400;-79
2023/09/26 07:15:32;;;;;;;11.63;6.78;;;12.20;99.90;;;;;;4979771;28;20102;-79
2023/09/26 07:18:06;;;;;;;10.38;6.60;;;12.40;99.90;;;;;;4974891;28;20031;-80
2023/09/26 07:20:33;;;;;;;10.50;6.22;;;12.60;99.90;;;;;;4976103;28;20038;-80
2023/09/26 07:22:59;;;;;;;10.52;7.28;;;12.60;99.90;;;;;;4977785;28;20058;-79
2023/09/26 07:25:25;;;;;;;8.00;6.22;;;12.80;99.90;;;;;;4991932;28;20419;-79
2023/09/26 07:27:56;;;;;;;7.10;5.13;;;12.80;99.90;;;;;;4970853;28;20031;-79
2023/09/26 07:30:22;;;;;;;8.55;5.93;;;13.20;99.90;;;;;;4959597;28;20077;-79
2023/09/26 07:32:47;;;;;;;3.72;2.97;;;13.40;99.90;;;;;;5002342;28;20439;-78
2023/09/26 07:35:13;;;;;;;4.30;3.00;;;13.60;99.90;;;;;;4978716;28;20048;-79
2023/09/26 07:37:39;;;;;;;7.00;3.45;;;13.80;99.90;;;;;;4955011;28;20138;-79
2023/09/26 07:40:08;;;;;;;3.42;2.40;;;14.20;99.90;;;;;;4962021;28;20027;-79
2023/09/26 07:42:35;;;;;;;4.88;2.75;;;14.40;99.90;;;;;;4974761;28;20110;-79
2023/09/26 07:45:01;;;;;;;4.38;3.55;;;14.60;99.90;;;;;;4975164;28;20328;-79
2023/09/26 07:47:26;;;;;;;3.28;2.38;;;14.60;99.90;;;;;;4970754;28;20070;-79
2023/09/26 07:49:53;;;;;;;5.95;3.20;;;14.90;99.90;;;;;;4971831;28;20026;-79
2023/09/26 07:52:19;;;;;;;5.72;3.33;;;15.10;99.90;;;;;;4970705;28;20410;-80
2023/09/26 07:54:45;;;;;;;3.97;2.55;;;15.30;99.90;;;;;;4954777;28;20033;-78
2023/09/26 07:57:10;;;;;;;3.63;3.20;;;15.50;99.90;;;;;;4973957;28;20390;-81
2023/09/26 07:59:37;;;;;;;2.50;2.28;;;15.60;99.90;;;;;;4976333;28;20060;-80
2023/09/26 08:02:03;;;;;;;4.60;2.85;;;15.60;99.90;;;;;;4971542;28;20053;-79
2023/09/26 08:04:30;;;;;;;4.65;2.40;;;15.80;99.90;;;;;;4975754;28;20042;-78
2023/09/26 08:06:55;;;;;;;5.25;2.80;;;15.90;99.90;;;;;;4980549;28;20049;-79
2023/09/26 08:09:21;;;;;;;2.92;2.10;;;16.40;99.90;;;;;;4972773;28;20026;-79
2023/09/26 08:11:46;;;;;;;4.47;2.55;;;16.40;99.90;;;;;;4957199;28;20133;-79
2023/09/26 08:14:12;;;;;;;3.47;2.13;;;16.50;99.90;;;;;;4959943;28;20056;-79
2023/09/26 08:16:37;;;;;;;3.55;1.80;;;16.80;99.90;;;;;;4976478;28;20038;-79
2023/09/26 08:19:03;;;;;;;2.72;2.15;;;16.90;99.90;;;;;;4958998;28;20062;-79
2023/09/26 08:21:29;;;;;;;3.25;2.28;;;16.80;99.90;;;;;;4973749;28;20119;-79
2023/09/26 08:23:56;;;;;;;7.15;2.63;;;17.00;99.90;;;;;;4970803;28;20541;-79
2023/09/26 08:26:22;;;;;;;3.95;3.03;;;17.20;99.90;;;;;;4974155;28;20019;-78
2023/09/26 08:28:47;;;;;;;6.70;2.88;;;17.30;99.90;;;;;;4972327;28;20394;-79
2023/09/26 08:31:17;;;;;;;4.45;2.28;;;18.00;99.90;;;;;;4954958;28;20034;-79
2023/09/26 08:33:43;;;;;;;2.92;2.10;;;17.90;99.90;;;;;;4977186;28;20026;-78
2023/09/26 08:36:15;;;;;;;3.15;2.40;;;18.00;99.90;;;;;;4974422;28;20030;-78
2023/09/26 08:38:42;;;;;;;3.15;2.28;;;18.20;99.90;;;;;;4972504;28;20043;-78
2023/09/26 08:41:08;;;;;;;3.67;2.65;;;18.10;99.90;;;;;;4972636;28;20054;-78
2023/09/26 08:43:36;;;;;;;3.53;2.22;;;18.10;99.90;;;;;;4973254;28;20058;-79
2023/09/26 08:46:02;;;;;;;3.78;2.13;;;18.40;99.90;;;;;;4972205;28;20023;-78
2023/09/26 08:48:28;;;;;;;2.28;2.08;;;18.60;99.90;;;;;;4987290;28;20118;-79
2023/09/26 08:50:53;;;;;;;3.63;2.42;;;18.90;99.90;;;;;;4969287;28;20038;-78
2023/09/26 08:53:19;;;;;;;3.45;2.03;;;19.10;99.80;;;;;;4956817;28;20023;-79
2023/09/26 08:55:45;;;;;;;3.40;1.92;;;19.00;99.90;;;;;;4972133;28;20046;-79
2023/09/26 08:58:11;;;;;;;5.63;2.55;;;19.40;99.70;;;;;;4952568;28;20035;-78
2023/09/26 09:00:37;;;;;;;6.57;2.20;;;19.90;98.40;;;;;;4971389;28;20491;-79
2023/09/26 09:03:03;;;;;;;4.00;1.90;;;19.70;98.60;;;;;;4971824;28;20042;-79
2023/09/26 09:05:29;;;;;;;4.40;1.95;;;20.10;97.60;;;;;;4972221;28;20499;-79
2023/09/26 09:07:55;;;;;;;5.07;2.15;;;20.30;96.20;;;;;;4972065;28;20111;-79
2023/09/26 09:10:21;;;;;;;2.63;1.88;;;20.50;96.90;;;;;;4953934;28;20035;-79
2023/09/26 09:12:47;;;;;;;2.33;1.70;;;20.40;96.30;;;;;;4971333;28;21259;-79
2023/09/26 09:15:16;;;;;;;2.60;1.80;;;20.50;96.20;;;;;;4966716;28;20041;-79
2023/09/26 09:17:48;;;;;;;4.45;1.73;;;20.70;95.90;;;;;;4971078;28;20409;-79
2023/09/26 09:20:17;;;;;;;3.65;1.77;;;20.90;95.30;;;;;;4953180;28;20053;-80
2023/09/26 09:22:46;;;;;;;2.53;1.88;;;21.40;93.80;;;;;;4969395;28;20045;-79
2023/09/26 09:25:11;;;;;;;5.63;1.98;;;21.40;93.50;;;;;;4970338;28;20030;-79
2023/09/26 09:27:39;;;;;;;5.75;1.67;;;21.30;94.10;;;;;;4957145;28;20367;-79
2023/09/26 09:30:07;;;;;;;4.13;1.95;;;21.20;94.10;;;;;;4926284;28;20441;-79
2023/09/26 09:32:33;;;;;;;2.13;1.67;;;21.50;92.80;;;;;;4967516;28;20033;-79
2023/09/26 09:34:59;;;;;;;6.85;1.98;;;21.80;93.20;;;;;;4953268;28;20126;-79
2023/09/26 09:37:24;;;;;;;3.63;1.85;;;21.80;93.20;;;;;;4965638;28;20165;-79
2023/09/26 09:39:51;;;;;;;4.00;1.83;;;21.90;92.30;;;;;;4966531;28;20034;-79
2023/09/26 09:42:16;;;;;;;3.55;1.92;;;22.20;92.40;;;;;;4965842;28;20054;-79
2023/09/26 09:44:42;;;;;;;1.70;1.50;;;22.20;92.10;;;;;;4967762;28;20057;-79
2023/09/26 09:47:08;;;;;;;3.03;2.30;;;22.10;92.50;;;;;;4970632;28;20201;-79
2023/09/26 09:49:41;;;;;;;2.65;2.05;;;22.60;91.00;;;;;;4956563;28;20062;-79
2023/09/26 09:52:07;;;;;;;3.22;1.73;;;22.60;91.50;;;;;;4969586;28;20026;-79
2023/09/26 09:54:33;;;;;;;2.55;1.83;;;22.70;91.40;;;;;;4968486;28;20403;-80
2023/09/26 09:56:59;;;;;;;3.88;1.75;;;23.20;90.20;;;;;;4968440;28;20497;-79
2023/09/26 09:59:24;;;;;;;2.85;1.88;;;23.00;89.20;;;;;;4980733;28;20172;-79
2023/09/26 10:01:52;;;;;;;4.03;1.70;;;23.20;89.30;;;;;;4967845;28;20054;-80
2023/09/26 10:04:18;;;;;;;6.57;1.45;;;23.20;89.70;;;;;;4967217;28;20078;-80
2023/09/26 10:06:44;;;;;;;2.50;1.58;;;23.50;87.10;;;;;;4967004;28;20030;-79
2023/09/26 10:09:10;;;;;;;5.65;1.75;;;23.80;86.70;;;;;;4956345;28;20037;-79
2023/09/26 10:11:35;;;;;;;2.45;1.98;;;23.80;88.80;;;;;;4986137;28;20042;-79
2023/09/26 10:14:03;;;;;;;1.63;1.33;;;23.90;88.80;;;;;;4949223;28;20038;-80
2023/09/26 10:16:29;;;;;;;2.65;1.80;;;23.90;86.80;;;;;;4968029;28;20726;-80
2023/09/26 10:18:59;;;;;;;2.40;1.50;;;23.90;86.00;;;;;;4966133;28;20048;-80
2023/09/26 10:21:29;;;;;;;2.30;1.45;;;24.30;84.10;;;;;;4994906;28;20035;-80
2023/09/26 10:24:13;;;;;;;2.20;1.67;;;24.60;84.10;;;;;;4972346;28;20551;-79
2023/09/26 10:26:39;;;;;;;1.52;1.42;;;24.70;83.80;;;;;;4982773;28;20795;-80
2023/09/26 10:29:28;;;;;;;1.83;1.50;;;24.80;82.50;;;;;;4973534;28;20380;-80
2023/09/26 10:31:58;;;;;;;2.00;1.45;;;24.70;84.40;;;;;;4964513;28;20030;-80
2023/09/26 10:34:24;;;;;;;1.95;1.20;;;25.20;80.70;;;;;;4970096;28;20027;-80
2023/09/26 10:36:50;;;;;;;1.70;1.08;;;25.10;80.20;;;;;;4970475;28;20066;-80
2023/09/26 10:39:15;;;;;;;1.75;1.13;;;25.20;81.00;;;;;;4977489;28;20026;-80
2023/09/26 10:41:41;;;;;;;3.05;1.30;;;25.30;80.20;;;;;;4972386;28;20034;-80
2023/09/26 10:44:06;;;;;;;1.60;1.00;;;25.50;76.60;;;;;;4975893;28;20031;-80
2023/09/26 10:46:32;;;;;;;3.75;1.20;;;25.50;76.00;;;;;;4971077;28;20034;-80
2023/09/26 10:48:58;;;;;;;2.63;1.27;;;25.50;76.80;;;;;;4972830;28;20498;-80
2023/09/26 10:51:23;;;;;;;4.28;1.25;;;25.40;76.10;;;;;;4978111;28;20159;-80
2023/09/26 10:53:49;;;;;;;1.13;1.02;;;25.90;75.50;;;;;;4974169;28;20062;-80
2023/09/26 10:56:15;;;;;;;3.17;1.45;;;26.20;74.30;;;;;;4974105;28;20034;-80
2023/09/26 10:58:42;;;;;;;2.08;1.55;;;26.10;72.70;;;;;;4977017;28;20030;-80
2023/09/26 11:01:08;;;;;;;2.65;1.13;;;26.30;71.60;;;;;;4978490;28;20039;-80
2023/09/26 11:03:35;;;;;;;1.50;1.40;;;26.20;73.40;;;;;;4963808;28;20094;-80
2023/09/26 11:06:01;;;;;;;1.48;1.13;;;26.40;73.30;;;;;;4982291;28;20517;-81
2023/09/26 11:08:27;;;;;;;1.75;1.25;;;26.60;73.50;;;;;;4975389;28;20038;-80
2023/09/26 11:10:53;;;;;;;1.95;1.40;;;27.30;68.40;;;;;;4958344;28;20042;-79
2023/09/26 11:13:19;;;;;;;2.63;1.25;;;27.10;69.20;;;;;;4977336;28;20034;-80
2023/09/26 11:15:45;;;;;;;1.58;1.10;;;27.00;68.00;;;;;;4976768;28;20027;-80
2023/09/26 11:18:12;;;;;;;1.35;1.00;;;27.50;67.40;;;;;;4974080;28;20038;-81
2023/09/26 11:20:39;;;;;;;1.40;1.08;;;27.40;68.90;;;;;;4970049;28;20494;-80
2023/09/26 11:23:04;;;;;;;1.80;1.50;;;27.40;68.10;;;;;;4973075;28;20042;-82
2023/09/26 11:25:33;;;;;;;2.50;1.20;;;27.60;66.60;;;;;;4958004;28;21214;-82
2023/09/26 11:27:59;;;;;;;3.55;1.20;;;27.60;67.50;;;;;;4978134;28;20036;-82
2023/09/26 11:30:24;;;;;;;1.63;1.30;;;27.40;68.90;;;;;;4977231;28;20291;-82
2023/09/26 11:32:53;;;;;;;1.85;1.20;;;27.00;71.90;;;;;;4958472;28;20518;-82
2023/09/26 11:35:21;;;;;;;3.85;1.42;;;27.50;70.00;;;;;;4958722;28;20053;-83
2023/09/26 11:37:53;;;;;;;1.80;1.17;;;27.90;69.20;;;;;;4961538;28;21034;-82
2023/09/26 11:40:22;;;;;;;1.85;1.20;;;28.00;67.50;;;;;;4978341;28;20133;-82
2023/09/26 11:42:50;;;;;;;2.75;1.25;;;27.90;68.60;;;;;;4978488;28;20114;-82
2023/09/26 11:45:22;;;;;;;1.27;1.10;;;27.50;69.10;;;;;;4975523;28;20041;-81
2023/09/26 11:47:48;;;;;;;2.22;1.50;;;27.90;69.00;;;;;;4960802;28;20031;-81
2023/09/26 11:50:13;;;;;;;1.52;1.42;;;27.80;68.20;;;;;;4976852;28;20041;-81
2023/09/26 11:52:40;;;;;;;1.73;1.20;;;27.70;69.30;;;;;;4992880;28;20094;-81
2023/09/26 11:55:06;;;;;;;1.50;1.40;;;27.60;72.10;;;;;;4964587;28;20744;-82
2023/09/26 11:57:33;;;;;;;1.83;1.40;;;27.60;70.60;;;;;;4975402;28;20035;-81
2023/09/26 11:59:59;;;;;;;2.15;1.42;;;28.00;71.60;;;;;;4977144;28;20039;-82
2023/09/26 12:02:25;;;;;;;1.75;1.40;;;28.40;68.30;;;;;;4979183;28;20035;-81
2023/09/26 12:04:51;;;;;;;2.75;1.55;;;29.10;65.70;;;;;;4968572;28;20037;-81
2023/09/26 12:07:17;;;;;;;1.70;1.48;;;29.10;65.90;;;;;;4977698;28;20058;-82
2023/09/26 12:09:44;;;;;;;3.13;1.33;;;28.90;65.70;;;;;;4960557;28;20027;-82
2023/09/26 12:12:09;;;;;;;2.28;1.20;;;28.60;65.50;;;;;;4973419;28;20038;-83
2023/09/26 12:14:46;;;;;;;1.73;1.35;;;29.10;63.90;;;;;;4957427;28;20130;-82
2023/09/26 12:17:11;;;;;;;2.50;1.38;;;28.60;65.70;;;;;;4973716;28;20042;-81
2023/09/26 12:19:38;;;;;;;3.15;1.30;;;28.80;65.00;;;;;;4976005;28;20483;-83
2023/09/26 12:22:03;;;;;;;2.33;1.35;;;29.30;64.80;;;;;;4974810;28;20034;-83
2023/09/26 12:24:29;;;;;;;1.30;1.20;;;29.30;64.70;;;;;;4979454;28;20039;-82
2023/09/26 12:26:55;;;;;;;1.25;1.00;;;29.20;66.20;;;;;;4977851;28;20027;-81
2023/09/26 12:29:21;;;;;;;9.75;1.65;;;29.10;64.70;;;;;;4973437;28;20034;-82
2023/09/26 12:31:46;;;;;;;1.95;1.45;;;29.10;65.70;;;;;;4968992;28;20030;-84
2023/09/26 12:34:13;;;;;;;1.90;1.30;;;28.80;65.60;;;;;;4968728;28;20031;-80
2023/09/26 12:36:38;;;;;;;3.33;1.17;;;29.40;65.10;;;;;;4941796;28;20050;-81
2023/09/26 12:39:04;;;;;;;2.60;1.30;;;30.00;63.10;;;;;;4965229;28;20070;-82
2023/09/26 12:41:30;;;;;;;3.47;1.40;;;30.10;63.50;;;;;;4974262;28;20027;-79
2023/09/26 12:43:58;;;;;;;2.08;1.30;;;29.90;64.40;;;;;;4950607;28;20487;-81